ADDS METAR Data INFO
IDs: Format: Raw Decoded Include TAF

Data at: 0021 UTC 23 Oct 2017

KPKD 222353Z AUTO 17008KT 10SM BKN110 13/00 A2979 RMK AO2 SLP095 T01280000 10161 20117 55010
KPKD 222253Z AUTO 19007KT 10SM FEW120 13/00 A2979 RMK AO2 SLP093 T01330000
KPKD 222153Z AUTO 23015G21KT 10SM CLR 14/M02 A2980 RMK AO2 PK WND 22027/2110 SLP099 T01441017
KPKD 222053Z AUTO 23014G23KT 10SM CLR 16/M01 A2982 RMK AO2 SLP102 T01611006 56020
KPKD 221953Z AUTO 24015G26KT 10SM CLR 16/M01 A2983 RMK AO2 PK WND 24026/1949 SLP107 T01561011
KPKD 221853Z AUTO 26017G22KT 10SM CLR 16/M01 A2985 RMK AO2 SLP113 T01561006
KPKD 221753Z AUTO 26018G26KT 10SM CLR 14/00 A2988 RMK AO2 PK WND 28027/1737 SLP124 T01440000 10144 20039 50004
KPKD 221653Z AUTO 26014G21KT 10SM CLR 13/01 A2989 RMK AO2 SLP130 T01280011
KPKD 221553Z AUTO 25010G18KT 10SM CLR 11/02 A2989 RMK AO2 SLP128 T01110022
KPKD 221453Z AUTO 25007KT 10SM CLR 09/03 A2987 RMK AO2 SLP123 T00890028 51019
KPKD 221353Z AUTO 25007KT 10SM CLR 06/02 A2987 RMK AO2 SLP124 T00610022
KPKD 221253Z AUTO 23007KT 10SM CLR 04/01 A2983 RMK AO2 SLP113 T00390011
KPKD 221153Z AUTO 25008KT 10SM CLR 05/02 A2981 RMK AO2 SLP105 60000 T00500022 10089 20050 51011
KPKD 221053Z AUTO 24009KT 10SM CLR 06/03 A2981 RMK AO2 SLP102 T00610028
KPKD 220953Z AUTO 25008KT 10SM CLR 06/03 A2979 RMK AO2 RAE43 SLP096 P0000 T00610033
KPKD 220853Z AUTO 26012G22KT 10SM -RA CLR 08/04 A2978 RMK AO2 RAB23 SLP087 P0000 60000 T00780039 52014
KPKD 220753Z AUTO 24009KT 10SM SCT040 OVC050 08/05 A2977 RMK AO2 SLP085 T00830050
KPKD 220653Z AUTO 23009KT 10SM OVC055 08/06 A2974 RMK AO2 SLP076 T00780056
KPKD 220553Z AUTO 22008KT 10SM BKN040 08/06 A2973 RMK AO2 SLP073 60000 T00780056 10106 20067 401830067 53012
KPKD 220453Z AUTO 23007KT 10SM FEW030 08/06 A2971 RMK AO2 SLP064 T00780056
KPKD 220353Z AUTO 25010KT 10SM OVC060 09/06 A2972 RMK AO2 RAE47 SLP068 P0000 T00940061
KPKD 220253Z AUTO 26012KT 10SM -RA SCT020 BKN060 09/07 A2970 RMK AO2 RAB13 SLP060 P0000 60000 T00890067 51029
KPKD 220153Z AUTO 24009KT 10SM FEW024 09/07 A2969 RMK AO2 SLP057 T00890067
KPKD 220053Z AUTO 21005KT 10SM FEW023 09/08 A2965 RMK AO2 SLP043 T00940078
KPKD 212353Z AUTO 26007KT 10SM BKN039 OVC100 11/09 A2961 RMK AO2 RAB21E31 SLP028 P0000 60000 T01060089 10183 20106 51012
KPKD 212316Z AUTO 26007KT 10SM OVC030 11/09 A2960 RMK AO2 T01110094
KPKD 212253Z AUTO 26006KT 10SM OVC026 11/09 A2960 RMK AO2 LTG DSNT NE RAE46 SLP025 P0000 T01110094
KPKD 212248Z AUTO 26005KT 10SM OVC025 11/09 A2959 RMK AO2 LTG DSNT NE AND SE RAE46 P0000
KPKD 212218Z AUTO 28008KT 10SM VCTS -RA OVC022 12/10 A2958 RMK AO2 LTG DSNT N AND NW P0000 T01170100
KPKD 212153Z AUTO 27011KT 10SM -RA SCT011 OVC018 12/10 A2957 RMK AO2 WSHFT 2102 RAB02 SLP015 P0000 T01170100
KPKD 212149Z AUTO 27010KT 10SM -RA SCT009 OVC016 12/10 A2958 RMK AO2 WSHFT 2102 LTG DSNT S RAB02 PRESRR P0000
KPKD 212142Z AUTO 28010KT 10SM -RA OVC011 12/10 A2956 RMK AO2 WSHFT 2102 LTG DSNT S RAB02 P0000 T01220100
KPKD 212119Z AUTO 28018G25KT 10SM -RA BKN008 BKN015 OVC022 13/12 A2955 RMK AO2 WSHFT 2102 LTG DSNT S RAB02 CIG 007V012 PRESRR P0000 T01330117
KPKD 212112Z AUTO 27019G25KT 10SM -RA FEW008 BKN015 OVC022 17/16 A2954 RMK AO2 WSHFT 2058 LTG DSNT S RAB02 PRESRR P0000 T01720156
KPKD 212053Z AUTO 17013KT 10SM OVC015 18/16 A2950 RMK AO2 RAB15E31 SLP989 P0000 60000 T01830161 56008
KPKD 211953Z AUTO 17012G20KT 10SM OVC011 18/16 A2950 RMK AO2 SLP989 T01780156
KPKD 211853Z AUTO 17014G22KT 10SM OVC011 17/15 A2952 RMK AO2 SLP993 T01720150
KPKD 211753Z AUTO 17012KT 10SM OVC014 17/14 A2953 RMK AO2 SLP997 T01720144 10172 20167 58002
KPKD 211653Z AUTO 16012G23KT 10SM OVC018 17/14 A2953 RMK AO2 SLP999 T01720139
KPKD 211553Z AUTO 16017G26KT 10SM OVC017 17/14 A2954 RMK AO2 PK WND 15026/1547 SLP000 T01720139
KPKD 211453Z AUTO 16017G24KT 10SM BKN018 OVC034 17/13 A2954 RMK AO2 SLP999 T01670133 53006
KPKD 211353Z AUTO 16015G25KT 10SM OVC019 17/14 A2953 RMK AO2 PK WND 17028/1318 SLP996 T01720139
KPKD 211253Z AUTO 16018G26KT 10SM OVC022 17/14 A2952 RMK AO2 PK WND 16027/1201 SLP992 T01720139